Time,TemperatureF,DewpointF,PressureIn,WindDirection,WindDirectionDegrees,WindSpeedMPH,WindSpeedGustMPH,Humidity,HourlyPrecipIn,Conditions,Clouds,dailyrainin,SoftwareType,DateUTC
2013-10-28 00:00:00,76.5,63.0,30.10,ENE,68,4.0,-999.0,63,0.00,,,0.00,Wunderground v.1.15,2013-10-28 04:00:00,
2013-10-28 00:05:00,76.5,63.0,30.10,ENE,68,4.0,-999.0,63,0.00,,,0.00,Wunderground v.1.15,2013-10-28 04:05:00,
2013-10-28 00:10:00,76.5,63.0,30.10,ENE,68,4.0,-999.0,63,0.00,,,0.00,Wunderground v.1.15,2013-10-28 04:10:00,
2013-10-28 00:15:00,76.5,63.0,30.10,ENE,68,4.0,-999.0,63,0.00,,,0.00,Wunderground v.1.15,2013-10-28 04:15:00,
2013-10-28 00:20:00,76.5,63.0,30.10,ENE,68,4.0,-999.0,63,0.00,,,0.00,Wunderground v.1.15,2013-10-28 04:20:00,
2013-10-28 00:25:00,76.5,63.0,30.10,ENE,68,4.0,-999.0,63,0.00,,,0.00,Wunderground v.1.15,2013-10-28 04:25:00,
2013-10-28 00:30:00,76.5,63.0,30.10,ENE,68,4.0,-999.0,63,0.00,,,0.00,Wunderground v.1.15,2013-10-28 04:30:00,
2013-10-28 00:35:00,76.5,63.0,30.10,ENE,68,4.0,-999.0,63,0.00,,,0.00,Wunderground v.1.15,2013-10-28 04:35:00,
2013-10-28 00:40:00,76.5,63.0,30.10,ENE,68,4.0,-999.0,63,0.00,,,0.00,Wunderground v.1.15,2013-10-28 04:40:00,
2013-10-28 00:45:00,76.6,62.1,30.10,ENE,68,4.0,-999.0,61,0.00,,,0.00,Wunderground v.1.15,2013-10-28 04:45:00,
2013-10-28 00:50:00,76.6,62.1,30.10,ENE,68,4.0,-999.0,61,0.00,,,0.00,Wunderground v.1.15,2013-10-28 04:50:00,
2013-10-28 00:55:00,76.6,62.1,30.10,ENE,68,4.0,-999.0,61,0.00,,,0.00,Wunderground v.1.15,2013-10-28 04:55:00,
2013-10-28 01:00:00,76.6,62.1,30.10,ENE,68,4.0,-999.0,61,0.00,,,0.00,Wunderground v.1.15,2013-10-28 05:00:00,
2013-10-28 01:05:00,76.6,62.1,30.10,ENE,68,4.0,-999.0,61,0.00,,,0.00,Wunderground v.1.15,2013-10-28 05:05:00,
2013-10-28 01:10:00,76.6,62.1,30.10,ENE,68,4.0,-999.0,61,0.00,,,0.00,Wunderground v.1.15,2013-10-28 05:10:00,
2013-10-28 01:15:00,76.6,62.6,30.08,ENE,68,4.0,-999.0,62,0.00,,,0.00,Wunderground v.1.15,2013-10-28 05:15:00,
2013-10-28 01:20:00,76.6,62.6,30.08,ENE,68,4.0,-999.0,62,0.00,,,0.00,Wunderground v.1.15,2013-10-28 05:20:00,
2013-10-28 01:25:00,76.6,62.6,30.08,ENE,68,4.0,-999.0,62,0.00,,,0.00,Wunderground v.1.15,2013-10-28 05:25:00,
2013-10-28 01:30:00,76.6,62.6,30.08,ENE,68,4.0,-999.0,62,0.00,,,0.00,Wunderground v.1.15,2013-10-28 05:30:00,
2013-10-28 01:35:00,76.6,62.6,30.08,ENE,68,4.0,-999.0,62,0.00,,,0.00,Wunderground v.1.15,2013-10-28 05:35:00,
2013-10-28 01:40:00,76.6,62.6,30.08,ENE,68,4.0,-999.0,62,0.00,,,0.00,Wunderground v.1.15,2013-10-28 05:40:00,
2013-10-28 01:45:00,76.6,63.5,30.08,ENE,68,4.0,-999.0,64,0.00,,,0.00,Wunderground v.1.15,2013-10-28 05:45:00,
2013-10-28 01:50:00,76.6,63.5,30.08,ENE,68,4.0,-999.0,64,0.00,,,0.00,Wunderground v.1.15,2013-10-28 05:50:00,
2013-10-28 01:55:00,76.6,63.5,30.08,ENE,68,4.0,-999.0,64,0.00,,,0.00,Wunderground v.1.15,2013-10-28 05:55:00,
2013-10-28 02:00:00,76.6,63.5,30.08,ENE,68,4.0,-999.0,64,0.00,,,0.00,Wunderground v.1.15,2013-10-28 06:00:00,
2013-10-28 02:05:00,76.6,63.5,30.08,ENE,68,4.0,-999.0,64,0.00,,,0.00,Wunderground v.1.15,2013-10-28 06:05:00,
2013-10-28 02:10:00,76.6,63.5,30.08,ENE,68,4.0,-999.0,64,0.00,,,0.00,Wunderground v.1.15,2013-10-28 06:10:00,
2013-10-28 02:15:00,76.5,63.0,30.08,East,90,4.0,-999.0,63,0.00,,,0.00,Wunderground v.1.15,2013-10-28 06:15:00,
2013-10-28 02:20:00,76.5,63.0,30.08,East,90,4.0,-999.0,63,0.00,,,0.00,Wunderground v.1.15,2013-10-28 06:20:00,
2013-10-28 02:25:00,76.5,63.0,30.08,East,90,4.0,-999.0,63,0.00,,,0.00,Wunderground v.1.15,2013-10-28 06:25:00,
2013-10-28 02:30:00,76.5,63.0,30.08,East,90,4.0,-999.0,63,0.00,,,0.00,Wunderground v.1.15,2013-10-28 06:30:00,
2013-10-28 02:35:00,76.5,63.0,30.08,East,90,4.0,-999.0,63,0.00,,,0.00,Wunderground v.1.15,2013-10-28 06:35:00,
2013-10-28 02:40:00,76.5,63.0,30.08,East,90,4.0,-999.0,63,0.00,,,0.00,Wunderground v.1.15,2013-10-28 06:40:00,
2013-10-28 02:45:00,76.3,62.8,30.07,ENE,68,4.0,-999.0,63,0.00,,,0.00,Wunderground v.1.15,2013-10-28 06:45:00,
2013-10-28 02:50:00,76.3,62.8,30.07,ENE,68,4.0,-999.0,63,0.00,,,0.00,Wunderground v.1.15,2013-10-28 06:50:00,
2013-10-28 02:55:00,76.3,62.8,30.07,ENE,68,4.0,-999.0,63,0.00,,,0.00,Wunderground v.1.15,2013-10-28 06:55:00,
2013-10-28 03:00:00,76.3,62.8,30.07,ENE,68,4.0,-999.0,63,0.00,,,0.00,Wunderground v.1.15,2013-10-28 07:00:00,
2013-10-28 03:05:00,76.3,62.8,30.07,ENE,68,4.0,-999.0,63,0.00,,,0.00,Wunderground v.1.15,2013-10-28 07:05:00,
2013-10-28 03:10:00,76.3,62.8,30.07,ENE,68,4.0,-999.0,63,0.00,,,0.00,Wunderground v.1.15,2013-10-28 07:10:00,
2013-10-28 03:15:00,76.0,63.4,30.06,ENE,68,4.0,-999.0,65,0.00,,,0.00,Wunderground v.1.15,2013-10-28 07:15:00,
2013-10-28 03:20:00,76.0,63.4,30.06,ENE,68,4.0,-999.0,65,0.00,,,0.00,Wunderground v.1.15,2013-10-28 07:20:00,
2013-10-28 03:25:00,76.0,63.4,30.06,ENE,68,4.0,-999.0,65,0.00,,,0.00,Wunderground v.1.15,2013-10-28 07:25:00,
2013-10-28 03:30:00,76.0,63.4,30.06,ENE,68,4.0,-999.0,65,0.00,,,0.00,Wunderground v.1.15,2013-10-28 07:30:00,
2013-10-28 03:35:00,76.0,63.4,30.06,ENE,68,4.0,-999.0,65,0.00,,,0.00,Wunderground v.1.15,2013-10-28 07:35:00,
2013-10-28 03:40:00,76.0,63.4,30.06,ENE,68,4.0,-999.0,65,0.00,,,0.00,Wunderground v.1.15,2013-10-28 07:40:00,
2013-10-28 03:45:00,75.9,61.9,30.06,ENE,68,3.0,-999.0,62,0.00,,,0.00,Wunderground v.1.15,2013-10-28 07:45:00,
2013-10-28 03:50:00,75.9,61.9,30.06,ENE,68,3.0,-999.0,62,0.00,,,0.00,Wunderground v.1.15,2013-10-28 07:50:00,
2013-10-28 03:55:00,75.9,61.9,30.06,ENE,68,3.0,-999.0,62,0.00,,,0.00,Wunderground v.1.15,2013-10-28 07:55:00,
2013-10-28 04:00:00,75.9,61.9,30.06,ENE,68,3.0,-999.0,62,0.00,,,0.00,Wunderground v.1.15,2013-10-28 08:00:00,
2013-10-28 04:05:00,75.9,61.9,30.06,ENE,68,3.0,-999.0,62,0.00,,,0.00,Wunderground v.1.15,2013-10-28 08:05:00,
2013-10-28 04:10:00,75.9,61.9,30.06,ENE,68,3.0,-999.0,62,0.00,,,0.00,Wunderground v.1.15,2013-10-28 08:10:00,
2013-10-28 04:15:00,75.9,63.3,30.06,East,90,3.0,-999.0,65,0.00,,,0.00,Wunderground v.1.15,2013-10-28 08:15:00,
2013-10-28 04:20:00,75.9,63.3,30.06,East,90,3.0,-999.0,65,0.00,,,0.00,Wunderground v.1.15,2013-10-28 08:20:00,
2013-10-28 04:25:00,75.9,63.3,30.06,East,90,3.0,-999.0,65,0.00,,,0.00,Wunderground v.1.15,2013-10-28 08:25:00,
2013-10-28 04:30:00,75.9,63.3,30.06,East,90,3.0,-999.0,65,0.00,,,0.00,Wunderground v.1.15,2013-10-28 08:30:00,
2013-10-28 04:35:00,75.9,63.3,30.06,East,90,3.0,-999.0,65,0.00,,,0.00,Wunderground v.1.15,2013-10-28 08:35:00,
2013-10-28 04:40:00,75.9,63.3,30.06,East,90,3.0,-999.0,65,0.00,,,0.00,Wunderground v.1.15,2013-10-28 08:40:00,
2013-10-28 04:45:00,75.8,63.2,30.07,ENE,68,3.0,-999.0,65,0.00,,,0.00,Wunderground v.1.15,2013-10-28 08:45:00,
2013-10-28 04:50:00,75.8,63.2,30.07,ENE,68,3.0,-999.0,65,0.00,,,0.00,Wunderground v.1.15,2013-10-28 08:50:00,
2013-10-28 04:55:00,75.8,63.2,30.07,ENE,68,3.0,-999.0,65,0.00,,,0.00,Wunderground v.1.15,2013-10-28 08:55:00,
2013-10-28 05:00:00,75.8,63.2,30.07,ENE,68,3.0,-999.0,65,0.00,,,0.00,Wunderground v.1.15,2013-10-28 09:00:00,
2013-10-28 05:05:00,75.8,63.2,30.07,ENE,68,3.0,-999.0,65,0.00,,,0.00,Wunderground v.1.15,2013-10-28 09:05:00,
2013-10-28 05:10:00,75.8,63.2,30.07,ENE,68,3.0,-999.0,65,0.00,,,0.00,Wunderground v.1.15,2013-10-28 09:10:00,
2013-10-28 05:15:00,75.8,63.6,30.07,ENE,68,3.0,-999.0,66,0.00,,,0.00,Wunderground v.1.15,2013-10-28 09:15:00,
2013-10-28 05:20:00,75.8,63.6,30.07,ENE,68,3.0,-999.0,66,0.00,,,0.00,Wunderground v.1.15,2013-10-28 09:20:00,
2013-10-28 05:25:00,75.8,63.6,30.07,ENE,68,3.0,-999.0,66,0.00,,,0.00,Wunderground v.1.15,2013-10-28 09:25:00,
2013-10-28 05:30:00,75.8,63.6,30.07,ENE,68,3.0,-999.0,66,0.00,,,0.00,Wunderground v.1.15,2013-10-28 09:30:00,
2013-10-28 05:35:00,75.8,63.6,30.07,ENE,68,3.0,-999.0,66,0.00,,,0.00,Wunderground v.1.15,2013-10-28 09:35:00,
2013-10-28 05:40:00,75.8,63.6,30.07,ENE,68,3.0,-999.0,66,0.00,,,0.00,Wunderground v.1.15,2013-10-28 09:40:00,
2013-10-28 05:45:00,75.7,63.1,30.07,ENE,68,4.0,-999.0,65,0.00,,,0.00,Wunderground v.1.15,2013-10-28 09:45:00,
2013-10-28 05:50:00,75.7,63.1,30.07,ENE,68,4.0,-999.0,65,0.00,,,0.00,Wunderground v.1.15,2013-10-28 09:50:00,
2013-10-28 05:55:00,75.7,63.1,30.07,ENE,68,4.0,-999.0,65,0.00,,,0.00,Wunderground v.1.15,2013-10-28 09:55:00,
2013-10-28 06:00:00,75.7,63.1,30.07,ENE,68,4.0,-999.0,65,0.00,,,0.00,Wunderground v.1.15,2013-10-28 10:00:00,
2013-10-28 06:05:00,75.7,63.1,30.07,ENE,68,4.0,-999.0,65,0.00,,,0.00,Wunderground v.1.15,2013-10-28 10:05:00,
2013-10-28 06:10:00,75.7,63.1,30.07,ENE,68,4.0,-999.0,65,0.00,,,0.00,Wunderground v.1.15,2013-10-28 10:10:00,
2013-10-28 06:15:00,75.6,63.4,30.07,ENE,68,4.0,-999.0,66,0.00,,,0.00,Wunderground v.1.15,2013-10-28 10:15:00,
2013-10-28 06:20:00,75.6,63.4,30.07,ENE,68,4.0,-999.0,66,0.00,,,0.00,Wunderground v.1.15,2013-10-28 10:20:00,
2013-10-28 06:25:00,75.6,63.4,30.07,ENE,68,4.0,-999.0,66,0.00,,,0.00,Wunderground v.1.15,2013-10-28 10:25:00,
2013-10-28 06:30:00,75.6,63.4,30.07,ENE,68,4.0,-999.0,66,0.00,,,0.00,Wunderground v.1.15,2013-10-28 10:30:00,
2013-10-28 06:35:00,75.6,63.4,30.07,ENE,68,4.0,-999.0,66,0.00,,,0.00,Wunderground v.1.15,2013-10-28 10:35:00,
2013-10-28 06:40:00,75.6,63.4,30.07,ENE,68,4.0,-999.0,66,0.00,,,0.00,Wunderground v.1.15,2013-10-28 10:40:00,
2013-10-28 06:45:00,75.5,62.9,30.09,ENE,68,4.0,-999.0,65,0.00,,,0.00,Wunderground v.1.15,2013-10-28 10:45:00,
2013-10-28 06:50:00,75.5,62.9,30.09,ENE,68,4.0,-999.0,65,0.00,,,0.00,Wunderground v.1.15,2013-10-28 10:50:00,
2013-10-28 06:55:00,75.5,62.9,30.09,ENE,68,4.0,-999.0,65,0.00,,,0.00,Wunderground v.1.15,2013-10-28 10:55:00,
2013-10-28 07:00:00,75.5,62.9,30.09,ENE,68,4.0,-999.0,65,0.00,,,0.00,Wunderground v.1.15,2013-10-28 11:00:00,
2013-10-28 07:05:00,75.5,62.9,30.09,ENE,68,4.0,-999.0,65,0.00,,,0.00,Wunderground v.1.15,2013-10-28 11:05:00,
2013-10-28 07:10:00,75.5,62.9,30.09,ENE,68,4.0,-999.0,65,0.00,,,0.00,Wunderground v.1.15,2013-10-28 11:10:00,
2013-10-28 07:15:00,75.4,63.7,30.10,ENE,68,3.0,-999.0,67,0.00,,,0.00,Wunderground v.1.15,2013-10-28 11:15:00,
2013-10-28 07:20:00,75.4,63.7,30.10,ENE,68,3.0,-999.0,67,0.00,,,0.00,Wunderground v.1.15,2013-10-28 11:20:00,
2013-10-28 07:25:00,75.4,63.7,30.10,ENE,68,3.0,-999.0,67,0.00,,,0.00,Wunderground v.1.15,2013-10-28 11:25:00,
2013-10-28 07:30:00,75.4,63.7,30.10,ENE,68,3.0,-999.0,67,0.00,,,0.00,Wunderground v.1.15,2013-10-28 11:30:00,
2013-10-28 07:35:00,75.4,63.7,30.10,ENE,68,3.0,-999.0,67,0.00,,,0.00,Wunderground v.1.15,2013-10-28 11:35:00,
2013-10-28 07:40:00,75.4,63.7,30.10,ENE,68,3.0,-999.0,67,0.00,,,0.00,Wunderground v.1.15,2013-10-28 11:40:00,
2013-10-28 07:45:00,75.4,63.7,30.11,ENE,68,3.0,-999.0,67,0.00,,,0.00,Wunderground v.1.15,2013-10-28 11:45:00,
2013-10-28 07:50:00,75.4,63.7,30.11,ENE,68,3.0,-999.0,67,0.00,,,0.00,Wunderground v.1.15,2013-10-28 11:50:00,
2013-10-28 07:55:00,75.4,63.7,30.11,ENE,68,3.0,-999.0,67,0.00,,,0.00,Wunderground v.1.15,2013-10-28 11:55:00,
2013-10-28 08:00:00,75.4,63.7,30.11,ENE,68,3.0,-999.0,67,0.00,,,0.00,Wunderground v.1.15,2013-10-28 12:00:00,
2013-10-28 08:05:00,75.4,63.7,30.11,ENE,68,3.0,-999.0,67,0.00,,,0.00,Wunderground v.1.15,2013-10-28 12:05:00,
2013-10-28 08:10:00,75.4,63.7,30.11,ENE,68,3.0,-999.0,67,0.00,,,0.00,Wunderground v.1.15,2013-10-28 12:10:00,
2013-10-28 08:15:00,76.2,63.1,30.11,ENE,68,4.0,-999.0,64,0.00,,,0.00,Wunderground v.1.15,2013-10-28 12:15:00,
2013-10-28 08:20:00,76.2,63.1,30.11,ENE,68,4.0,-999.0,64,0.00,,,0.00,Wunderground v.1.15,2013-10-28 12:20:00,
2013-10-28 08:25:00,76.2,63.1,30.11,ENE,68,4.0,-999.0,64,0.00,,,0.00,Wunderground v.1.15,2013-10-28 12:25:00,
2013-10-28 08:30:00,76.2,63.1,30.11,ENE,68,4.0,-999.0,64,0.00,,,0.00,Wunderground v.1.15,2013-10-28 12:30:00,
2013-10-28 08:35:00,76.2,63.1,30.11,ENE,68,4.0,-999.0,64,0.00,,,0.00,Wunderground v.1.15,2013-10-28 12:35:00,
2013-10-28 08:40:00,76.2,63.1,30.11,ENE,68,4.0,-999.0,64,0.00,,,0.00,Wunderground v.1.15,2013-10-28 12:40:00,
2013-10-28 08:45:00,77.6,61.7,30.12,ENE,68,4.0,-999.0,58,0.00,,,0.00,Wunderground v.1.15,2013-10-28 12:45:00,
2013-10-28 08:50:00,77.6,61.7,30.12,ENE,68,4.0,-999.0,58,0.00,,,0.00,Wunderground v.1.15,2013-10-28 12:50:00,
2013-10-28 08:55:00,77.6,61.7,30.12,ENE,68,4.0,-999.0,58,0.00,,,0.00,Wunderground v.1.15,2013-10-28 12:55:00,
2013-10-28 09:00:00,77.6,61.7,30.12,ENE,68,4.0,-999.0,58,0.00,,,0.00,Wunderground v.1.15,2013-10-28 13:00:00,
2013-10-28 09:05:00,77.6,61.7,30.12,ENE,68,4.0,-999.0,58,0.00,,,0.00,Wunderground v.1.15,2013-10-28 13:05:00,
2013-10-28 09:10:00,77.6,61.7,30.12,ENE,68,4.0,-999.0,58,0.00,,,0.00,Wunderground v.1.15,2013-10-28 13:10:00,
2013-10-28 09:15:00,78.9,64.8,30.13,East,90,3.0,-999.0,62,0.00,,,0.00,Wunderground v.1.15,2013-10-28 13:15:00,
2013-10-28 09:20:00,78.9,64.8,30.13,East,90,3.0,-999.0,62,0.00,,,0.00,Wunderground v.1.15,2013-10-28 13:20:00,
2013-10-28 09:25:00,78.9,64.8,30.13,East,90,3.0,-999.0,62,0.00,,,0.00,Wunderground v.1.15,2013-10-28 13:25:00,
2013-10-28 09:30:00,78.9,64.8,30.13,East,90,3.0,-999.0,62,0.00,,,0.00,Wunderground v.1.15,2013-10-28 13:30:00,
2013-10-28 09:35:00,78.9,64.8,30.13,East,90,3.0,-999.0,62,0.00,,,0.00,Wunderground v.1.15,2013-10-28 13:35:00,
2013-10-28 09:40:00,78.9,64.8,30.13,East,90,3.0,-999.0,62,0.00,,,0.00,Wunderground v.1.15,2013-10-28 13:40:00,
2013-10-28 09:45:00,79.5,63.9,30.14,East,90,4.0,-999.0,59,0.00,,,0.00,Wunderground v.1.15,2013-10-28 13:45:00,
2013-10-28 09:50:00,79.5,63.9,30.14,East,90,4.0,-999.0,59,0.00,,,0.00,Wunderground v.1.15,2013-10-28 13:50:00,
2013-10-28 09:55:00,79.5,63.9,30.14,East,90,4.0,-999.0,59,0.00,,,0.00,Wunderground v.1.15,2013-10-28 13:55:00,
2013-10-28 10:00:00,79.5,63.9,30.14,East,90,4.0,-999.0,59,0.00,,,0.00,Wunderground v.1.15,2013-10-28 14:00:00,
2013-10-28 10:05:00,79.5,63.9,30.14,East,90,4.0,-999.0,59,0.00,,,0.00,Wunderground v.1.15,2013-10-28 14:05:00,
2013-10-28 10:10:00,79.5,63.9,30.14,East,90,4.0,-999.0,59,0.00,,,0.00,Wunderground v.1.15,2013-10-28 14:10:00,
2013-10-28 10:15:00,80.0,64.9,30.15,East,90,4.0,-999.0,60,0.00,,,0.00,Wunderground v.1.15,2013-10-28 14:15:00,
2013-10-28 10:20:00,80.0,64.9,30.15,East,90,4.0,-999.0,60,0.00,,,0.00,Wunderground v.1.15,2013-10-28 14:20:00,
2013-10-28 10:25:00,80.0,64.9,30.15,East,90,4.0,-999.0,60,0.00,,,0.00,Wunderground v.1.15,2013-10-28 14:25:00,
2013-10-28 10:30:00,80.0,64.9,30.15,East,90,4.0,-999.0,60,0.00,,,0.00,Wunderground v.1.15,2013-10-28 14:30:00,
2013-10-28 11:00:00,80.1,65.9,30.15,East,80,6.0,6.0,62,0.00,,,0.00,Wunderground v.1.15,2013-10-28 15:00:00,
2013-10-28 11:10:00,81.0,67.2,30.15,ENE,70,4.0,4.0,63,0.00,,,0.00,Wunderground v.1.15,2013-10-28 15:10:00,
2013-10-28 11:20:00,80.7,66.0,30.15,NE,37,5.0,5.0,61,0.00,,,0.00,Wunderground v.1.15,2013-10-28 15:20:00,
2013-10-28 11:30:00,81.2,64.5,30.15,ENE,70,5.0,5.0,57,0.00,,,0.00,Wunderground v.1.15,2013-10-28 15:30:00,
2013-10-28 11:40:00,81.4,65.2,30.15,ENE,60,5.0,7.0,58,0.00,,,0.00,Wunderground v.1.15,2013-10-28 15:40:00,
2013-10-28 11:50:00,81.2,65.5,30.15,NE,51,6.0,8.0,59,0.00,,,0.00,Wunderground v.1.15,2013-10-28 15:50:00,
2013-10-28 12:00:00,80.9,65.7,30.15,ENE,70,5.0,6.0,60,0.00,,,0.00,Wunderground v.1.15,2013-10-28 16:00:00,
2013-10-28 12:10:00,81.0,66.3,30.14,East,101,5.0,5.0,61,0.00,,,0.00,Wunderground v.1.15,2013-10-28 16:10:00,
2013-10-28 12:20:00,81.4,66.2,30.14,NE,54,5.0,7.0,60,0.00,,,0.00,Wunderground v.1.15,2013-10-28 16:20:00,
2013-10-28 12:30:00,81.3,66.6,30.14,ENE,64,5.0,6.0,61,0.00,,,0.00,Wunderground v.1.15,2013-10-28 16:30:00,
2013-10-28 12:40:00,81.7,66.5,30.14,ESE,108,5.0,5.0,60,0.00,,,0.00,Wunderground v.1.15,2013-10-28 16:40:00,
2013-10-28 12:50:00,82.3,66.0,30.13,ENE,60,4.0,4.0,58,0.00,,,0.00,Wunderground v.1.15,2013-10-28 16:50:00,
2013-10-28 13:00:00,82.6,66.3,30.13,East,86,5.0,5.0,58,0.00,,,0.00,Wunderground v.1.15,2013-10-28 17:00:00,
2013-10-28 13:10:00,82.5,65.7,30.13,ENE,57,5.0,7.0,57,0.00,,,0.00,Wunderground v.1.15,2013-10-28 17:10:00,
2013-10-28 13:20:00,81.8,65.1,30.12,East,85,6.0,6.0,57,0.00,,,0.00,Wunderground v.1.15,2013-10-28 17:20:00,
2013-10-28 13:30:00,81.4,65.2,30.12,ENE,70,7.0,7.0,58,0.00,,,0.00,Wunderground v.1.15,2013-10-28 17:30:00,
2013-10-28 13:40:00,82.2,66.0,30.12,NE,34,5.0,8.0,58,0.00,,,0.00,Wunderground v.1.15,2013-10-28 17:40:00,
2013-10-28 13:50:00,82.4,65.1,30.12,ESE,108,6.0,6.0,56,0.00,,,0.00,Wunderground v.1.15,2013-10-28 17:50:00,
2013-10-28 14:00:00,82.3,64.5,30.11,East,81,5.0,11.0,55,0.00,,,0.00,Wunderground v.1.15,2013-10-28 18:00:00,
2013-10-28 14:10:00,81.5,65.3,30.11,SE,133,6.0,6.0,58,0.00,,,0.00,Wunderground v.1.15,2013-10-28 18:10:00,
2013-10-28 14:20:00,82.0,65.3,30.10,ESE,109,6.0,6.0,57,0.00,,,0.00,Wunderground v.1.15,2013-10-28 18:20:00,
2013-10-28 14:30:00,82.4,64.1,30.10,East,92,5.0,5.0,54,0.00,,,0.00,Wunderground v.1.15,2013-10-28 18:30:00,
2013-10-28 14:40:00,82.2,64.9,30.10,SE,130,5.0,5.0,56,0.00,,,0.00,Wunderground v.1.15,2013-10-28 18:40:00,
2013-10-28 14:50:00,81.9,65.2,30.09,NE,56,6.0,7.0,57,0.00,,,0.00,Wunderground v.1.15,2013-10-28 18:50:00,
2013-10-28 15:00:00,82.1,63.3,30.09,East,82,6.0,6.0,53,0.00,,,0.00,Wunderground v.1.15,2013-10-28 19:00:00,
2013-10-28 15:10:00,82.2,62.3,30.09,NE,46,6.0,6.0,51,0.00,,,0.00,Wunderground v.1.15,2013-10-28 19:10:00,
2013-10-28 15:20:00,82.0,61.0,30.09,East,81,7.0,8.0,49,0.00,,,0.00,Wunderground v.1.15,2013-10-28 19:20:00,
2013-10-28 15:30:00,82.3,61.2,30.09,ENE,60,6.0,6.0,49,0.00,,,0.00,Wunderground v.1.15,2013-10-28 19:30:00,
2013-10-28 15:40:00,82.1,60.5,30.09,ESE,113,6.0,8.0,48,0.00,,,0.00,Wunderground v.1.15,2013-10-28 19:40:00,
2013-10-28 15:50:00,82.6,60.9,30.09,NE,53,5.0,5.0,48,0.00,,,0.00,Wunderground v.1.15,2013-10-28 19:50:00,
2013-10-28 16:00:00,82.3,61.8,30.09,NE,51,6.0,6.0,50,0.00,,,0.00,Wunderground v.1.15,2013-10-28 20:00:00,
2013-10-28 16:10:00,82.3,62.4,30.09,NE,49,6.0,10.0,51,0.00,,,0.00,Wunderground v.1.15,2013-10-28 20:10:00,
2013-10-28 16:20:00,82.1,62.2,30.09,ENE,63,7.0,7.0,51,0.00,,,0.00,Wunderground v.1.15,2013-10-28 20:20:00,
2013-10-28 16:30:00,82.0,61.5,30.09,East,96,6.0,8.0,50,0.00,,,0.00,Wunderground v.1.15,2013-10-28 20:30:00,
2013-10-28 16:40:00,81.9,62.0,30.09,ENE,62,6.0,6.0,51,0.00,,,0.00,Wunderground v.1.15,2013-10-28 20:40:00,
2013-10-28 16:50:00,82.2,62.3,30.10,NNE,23,5.0,5.0,51,0.00,,,0.00,Wunderground v.1.15,2013-10-28 20:50:00,
2013-10-28 17:00:00,81.8,61.9,30.10,NE,51,6.0,6.0,51,0.00,,,0.00,Wunderground v.1.15,2013-10-28 21:00:00,
2013-10-28 17:10:00,81.4,62.6,30.10,ENE,66,7.0,10.0,53,0.00,,,0.00,Wunderground v.1.15,2013-10-28 21:10:00,
2013-10-28 17:20:00,81.2,63.0,30.10,ENE,70,7.0,8.0,54,0.00,,,0.00,Wunderground v.1.15,2013-10-28 21:20:00,
2013-10-28 17:30:00,81.2,63.0,30.10,NNE,18,6.0,6.0,54,0.00,,,0.00,Wunderground v.1.15,2013-10-28 21:30:00,
2013-10-28 17:40:00,81.1,63.9,30.10,NNE,20,6.0,7.0,56,0.00,,,0.00,Wunderground v.1.15,2013-10-28 21:40:00,
2013-10-28 17:50:00,80.8,64.1,30.11,ENE,63,7.0,7.0,57,0.00,,,0.00,Wunderground v.1.15,2013-10-28 21:50:00,
2013-10-28 18:00:00,80.7,63.5,30.11,ENE,57,6.0,7.0,56,0.00,,,0.00,Wunderground v.1.15,2013-10-28 22:00:00,
2013-10-28 18:10:00,80.5,63.9,30.11,ENE,70,6.0,6.0,57,0.00,,,0.00,Wunderground v.1.15,2013-10-28 22:10:00,
2013-10-28 18:20:00,80.2,64.6,30.11,East,79,5.0,5.0,59,0.00,,,0.00,Wunderground v.1.15,2013-10-28 22:20:00,
2013-10-28 18:30:00,79.9,64.3,30.11,ENE,75,4.0,4.0,59,0.00,,,0.00,Wunderground v.1.15,2013-10-28 22:30:00,
2013-10-28 18:40:00,79.4,63.8,30.11,NE,46,4.0,5.0,59,0.00,,,0.00,Wunderground v.1.15,2013-10-28 22:40:00,
2013-10-28 18:50:00,79.2,64.1,30.12,ENE,64,5.0,5.0,60,0.00,,,0.00,Wunderground v.1.15,2013-10-28 22:50:00,
2013-10-28 19:00:00,79.1,64.0,30.12,East,95,5.0,5.0,60,0.00,,,0.00,Wunderground v.1.15,2013-10-28 23:00:00,
2013-10-28 19:10:00,79.0,63.9,30.12,ENE,70,5.0,5.0,60,0.00,,,0.00,Wunderground v.1.15,2013-10-28 23:10:00,
2013-10-28 19:20:00,78.9,64.3,30.12,NE,47,5.0,5.0,61,0.00,,,0.00,Wunderground v.1.15,2013-10-28 23:20:00,
2013-10-28 19:30:00,78.8,64.2,30.12,ENE,73,5.0,5.0,61,0.00,,,0.00,Wunderground v.1.15,2013-10-28 23:30:00,
2013-10-28 19:40:00,78.7,64.6,30.12,ENE,60,5.0,10.0,62,0.00,,,0.00,Wunderground v.1.15,2013-10-28 23:40:00,
2013-10-28 19:50:00,78.7,64.6,30.12,NE,44,6.0,6.0,62,0.00,,,0.00,Wunderground v.1.15,2013-10-28 23:50:00,
2013-10-28 20:00:00,78.6,64.9,30.12,ENE,65,5.0,5.0,63,0.00,,,0.00,Wunderground v.1.15,2013-10-29 00:00:00,
2013-10-28 20:10:00,78.6,64.9,30.13,East,101,5.0,7.0,63,0.00,,,0.00,Wunderground v.1.15,2013-10-29 00:10:00,
2013-10-28 20:20:00,78.5,65.3,30.13,NE,46,5.0,6.0,64,0.00,,,0.00,Wunderground v.1.15,2013-10-29 00:20:00,
2013-10-28 20:30:00,78.6,64.9,30.13,NE,56,7.0,7.0,63,0.00,,,0.00,Wunderground v.1.15,2013-10-29 00:30:00,
2013-10-28 20:40:00,78.5,65.8,30.13,ENE,72,5.0,6.0,65,0.00,,,0.00,Wunderground v.1.15,2013-10-29 00:40:00,
2013-10-28 20:50:00,78.5,65.8,30.14,ENE,74,5.0,7.0,65,0.00,,,0.00,Wunderground v.1.15,2013-10-29 00:50:00,
2013-10-28 21:00:00,78.4,65.2,30.14,NE,54,5.0,7.0,64,0.00,,,0.00,Wunderground v.1.15,2013-10-29 01:00:00,
2013-10-28 21:10:00,78.4,65.2,30.14,East,80,4.0,4.0,64,0.00,,,0.00,Wunderground v.1.15,2013-10-29 01:10:00,
2013-10-28 21:20:00,78.5,64.9,30.14,ESE,111,5.0,5.0,63,0.00,,,0.00,Wunderground v.1.15,2013-10-29 01:20:00,
2013-10-28 21:30:00,78.5,64.4,30.14,East,82,4.0,4.0,62,0.00,,,0.00,Wunderground v.1.15,2013-10-29 01:30:00,
2013-10-28 21:40:00,78.5,65.3,30.14,ENE,60,5.0,6.0,64,0.00,,,0.00,Wunderground v.1.15,2013-10-29 01:40:00,
2013-10-28 21:50:00,78.5,65.3,30.15,ENE,70,4.0,4.0,64,0.00,,,0.00,Wunderground v.1.15,2013-10-29 01:50:00,
2013-10-28 22:00:00,78.5,65.8,30.15,ENE,77,3.0,4.0,65,0.00,,,0.00,Wunderground v.1.15,2013-10-29 02:00:00,
2013-10-28 22:10:00,78.5,65.3,30.15,SE,124,5.0,5.0,64,0.00,,,0.00,Wunderground v.1.15,2013-10-29 02:10:00,
2013-10-28 22:20:00,78.4,64.8,30.15,ENE,58,4.0,9.0,63,0.00,,,0.00,Wunderground v.1.15,2013-10-29 02:20:00,
2013-10-28 22:30:00,78.5,65.3,30.15,NE,46,4.0,5.0,64,0.00,,,0.00,Wunderground v.1.15,2013-10-29 02:30:00,
2013-10-28 22:40:00,78.4,64.8,30.15,ESE,113,4.0,4.0,63,0.00,,,0.00,Wunderground v.1.15,2013-10-29 02:40:00,
2013-10-28 22:50:00,78.4,64.8,30.15,East,93,4.0,4.0,63,0.00,,,0.00,Wunderground v.1.15,2013-10-29 02:50:00,
2013-10-28 23:00:00,78.3,65.1,30.15,East,89,3.0,3.0,64,0.00,,,0.00,Wunderground v.1.15,2013-10-29 03:00:00,
2013-10-28 23:10:00,78.5,65.8,30.15,NE,49,4.0,4.0,65,0.00,,,0.00,Wunderground v.1.15,2013-10-29 03:10:00,
2013-10-28 23:20:00,78.5,66.2,30.15,East,86,5.0,6.0,66,0.00,,,0.00,Wunderground v.1.15,2013-10-29 03:20:00,
2013-10-28 23:30:00,78.4,66.5,30.15,East,89,5.0,5.0,67,0.00,,,0.00,Wunderground v.1.15,2013-10-29 03:30:00,
2013-10-28 23:40:00,78.3,66.4,30.15,ENE,71,5.0,5.0,67,0.00,,,0.00,Wunderground v.1.15,2013-10-29 03:40:00,
2013-10-28 23:50:00,78.1,66.2,30.14,NE,54,4.0,7.0,67,0.00,,,0.00,Wunderground v.1.15,2013-10-29 03:50:00,